Time;durP1;ratioP1;P1;durP2;ratioP2;P2;SDS_P1;SDS_P2;PMS_P1;PMS_P2;Temp;Humidity;BMP_temperature;BMP_pressure;BME280_temperature;BME280_humidity;BME280_pressure;Samples;Min_cycle;Max_cycle;Signal;HPM_P1;HPM_P2
2021/08/07 00:01:54;;;;;;;15.80;11.38;;;;;;;20.00;98.00;98724.41;1648808;86;21603;-68
2021/08/07 00:04:20;;;;;;;11.40;10.30;;;;;;;19.93;97.84;98722.00;1671516;85;21006;-68
2021/08/07 00:06:46;;;;;;;11.53;9.88;;;;;;;19.96;98.13;98736.33;1668373;86;21047;-68
2021/08/07 00:09:14;;;;;;;16.32;10.48;;;;;;;20.03;97.91;98733.88;1668118;86;21584;-68
2021/08/07 00:11:41;;;;;;;14.80;11.65;;;;;;;20.06;97.31;98740.58;1668271;86;20990;-68
2021/08/07 00:14:07;;;;;;;25.62;11.95;;;;;;;20.11;97.19;98756.75;1668067;85;21039;-69
2021/08/07 00:16:34;;;;;;;11.38;10.28;;;;;;;20.17;96.80;98766.34;1666048;86;21000;-67
2021/08/07 00:19:01;;;;;;;11.63;10.50;;;;;;;20.19;96.35;98760.77;1667101;86;21055;-70
2021/08/07 00:21:27;;;;;;;10.03;8.85;;;;;;;20.24;96.16;98763.28;1656386;86;21070;-69
2021/08/07 00:23:56;;;;;;;12.28;11.03;;;;;;;20.32;95.88;98763.02;1667656;86;21019;-71
2021/08/07 00:26:22;;;;;;;12.47;9.93;;;;;;;20.36;95.07;98777.03;1647604;86;21560;-71
2021/08/07 00:28:50;;;;;;;16.85;11.63;;;;;;;20.36;94.43;98779.76;1667868;85;21058;-70
2021/08/07 00:31:16;;;;;;;12.75;11.22;;;;;;;20.16;94.90;98779.19;1668055;86;21079;-70
2021/08/07 00:33:43;;;;;;;12.88;11.03;;;;;;;19.98;96.36;98775.82;1616635;87;22080;-70
2021/08/07 00:36:11;;;;;;;11.43;9.85;;;;;;;19.90;97.05;98774.53;1648114;86;21109;-69
2021/08/07 00:38:39;;;;;;;12.28;10.72;;;;;;;19.95;97.22;98775.70;1642454;85;20978;-69
2021/08/07 00:41:05;;;;;;;9.05;8.15;;;;;;;20.05;96.98;98774.49;1620681;87;21118;-71
2021/08/07 00:43:33;;;;;;;10.40;8.50;;;;;;;20.13;96.60;98783.97;1668890;86;21106;-69
2021/08/07 00:46:01;;;;;;;12.03;9.63;;;;;;;20.17;96.20;98790.91;1669929;86;21137;-70
2021/08/07 00:48:29;;;;;;;13.18;10.78;;;;;;;20.20;95.87;98791.59;1670167;86;21050;-70
2021/08/07 00:50:57;;;;;;;14.25;11.35;;;;;;;20.23;95.46;98798.58;1669806;85;21531;-70
2021/08/07 00:53:24;;;;;;;11.50;8.90;;;;;;;20.29;95.47;98799.14;1667869;86;21118;-68
2021/08/07 00:55:52;;;;;;;13.13;9.18;;;;;;;20.39;95.22;98803.66;1622249;86;21072;-70
2021/08/07 00:58:20;;;;;;;14.25;11.50;;;;;;;20.49;94.74;98792.88;1669825;85;21130;-69
2021/08/07 01:00:48;;;;;;;13.00;9.13;;;;;;;20.56;93.66;98796.44;1611591;88;21513;-70
2021/08/07 01:03:39;;;;;;;17.10;11.18;;;;;;;20.62;93.32;98799.20;1669683;85;21095;-69
2021/08/07 01:06:32;;;;;;;11.95;10.75;;;;;;;20.66;92.54;98797.37;1599662;89;21098;-69
2021/08/07 01:09:40;;;;;;;13.53;10.10;;;;;;;20.74;92.34;98792.38;1690839;84;21161;-69
2021/08/07 01:12:27;;;;;;;11.93;10.50;;;;;;;20.82;91.36;98792.27;1667831;86;20998;-69
2021/08/07 01:14:55;;;;;;;10.68;8.65;;;;;;;20.87;90.84;98795.36;1645004;86;21582;-70
2021/08/07 01:17:26;;;;;;;10.20;8.65;;;;;;;20.92;90.23;98797.88;1611754;89;20983;-70
2021/08/07 01:20:16;;;;;;;11.95;9.95;;;;;;;20.94;89.40;98802.45;1637442;87;21039;-70
2021/08/07 01:23:08;;;;;;;9.28;8.40;;;;;;;20.88;89.05;98809.26;1624974;85;21043;-69
2021/08/07 01:25:50;;;;;;;9.63;8.13;;;;;;;20.82;89.11;98808.67;1667927;86;21256;-70
2021/08/07 01:28:19;;;;;;;12.13;7.85;;;;;;;20.83;88.82;98802.64;1642745;86;21075;-71
2021/08/07 01:30:48;;;;;;;11.35;8.80;;;;;;;20.80;88.59;98816.43;1637851;87;21012;-69
2021/08/07 01:33:17;;;;;;;8.33;7.22;;;;;;;20.76;88.30;98815.52;1670367;85;21102;-70
2021/08/07 01:35:56;;;;;;;16.00;8.80;;;;;;;20.74;88.12;98812.31;1654844;86;20972;-69
2021/08/07 01:38:24;;;;;;;12.55;8.38;;;;;;;20.67;88.25;98810.69;1609431;88;21246;-70
2021/08/07 01:40:52;;;;;;;14.50;8.15;;;;;;;20.66;88.39;98815.94;1606709;89;21001;-71
2021/08/07 01:43:20;;;;;;;14.35;8.03;;;;;;;20.61;88.13;98812.63;1647367;86;21046;-69
2021/08/07 01:45:49;;;;;;;7.92;6.87;;;;;;;20.54;88.11;98807.69;1609524;89;21097;-70
2021/08/07 01:48:34;;;;;;;8.33;6.97;;;;;;;20.46;88.14;98808.59;1623802;86;21102;-69
2021/08/07 01:51:10;;;;;;;7.00;6.30;;;;;;;20.34;88.46;98810.69;1584702;90;21101;-70
2021/08/07 01:53:38;;;;;;;7.85;7.05;;;;;;;20.23;89.00;98812.80;1583859;90;21603;-70
2021/08/07 01:56:37;;;;;;;7.35;6.67;;;;;;;20.16;89.46;98809.22;1584052;90;21049;-68
2021/08/07 01:59:08;;;;;;;7.80;7.10;;;;;;;20.10;89.85;98817.94;1602135;87;21515;-70
2021/08/07 02:01:36;;;;;;;6.40;5.50;;;;;;;20.05;90.21;98816.80;1619455;87;21022;-70
2021/08/07 02:04:04;;;;;;;6.35;5.80;;;;;;;19.96;90.29;98825.03;1616506;87;21064;-69
2021/08/07 02:06:33;;;;;;;6.97;6.05;;;;;;;19.85;90.36;98825.22;1607809;88;21130;-70
2021/08/07 02:09:01;;;;;;;6.90;6.08;;;;;;;19.76;90.56;98833.44;1560732;90;21113;-70
2021/08/07 02:11:29;;;;;;;10.63;6.70;;;;;;;19.48;91.60;98823.58;1647395;86;21065;-70
2021/08/07 02:13:58;;;;;;;6.42;5.92;;;;;;;18.95;95.93;98823.30;1654387;86;21042;-71
2021/08/07 02:16:26;;;;;;;7.10;6.40;;;;;;;18.95;95.93;98823.30;1631727;86;21114;-70
2021/08/07 02:18:54;;;;;;;9.33;6.58;;;;;;;18.81;97.13;98821.34;1654559;86;20957;-70
2021/08/07 02:21:21;;;;;;;13.28;7.40;;;;;;;18.73;97.75;98827.87;1624813;88;21066;-70
2021/08/07 02:23:50;;;;;;;7.80;7.05;;;;;;;18.63;98.50;98835.58;1628043;88;21497;-70
2021/08/07 02:26:21;;;;;;;7.85;6.53;;;;;;;18.54;99.33;98838.33;1627820;88;21090;-70
2021/08/07 02:28:49;;;;;;;7.58;6.85;;;;;;;18.49;99.51;98841.18;1642106;86;21109;-70
2021/08/07 02:31:16;;;;;;;12.40;6.80;;;;;;;18.45;99.41;98843.51;1654808;86;21049;-71
2021/08/07 02:33:45;;;;;;;7.83;7.03;;;;;;;18.42;99.29;98844.13;1632357;86;21074;-70
2021/08/07 02:36:14;;;;;;;9.55;6.92;;;;;;;18.36;99.60;98845.45;1654199;86;21096;-70
2021/08/07 02:38:42;;;;;;;8.50;7.58;;;;;;;18.33;99.92;98845.51;1587134;89;21068;-70
2021/08/07 02:41:09;;;;;;;7.92;6.72;;;;;;;18.30;99.85;98861.13;1590288;89;21104;-70
2021/08/07 02:43:38;;;;;;;7.15;6.45;;;;;;;18.29;99.65;98856.80;1589240;89;21371;-70
2021/08/07 02:46:06;;;;;;;9.28;6.50;;;;;;;18.28;99.33;98860.08;1567048;89;21000;-69
2021/08/07 02:48:33;;;;;;;7.03;5.72;;;;;;;18.25;99.47;98864.02;1594252;89;21110;-70
2021/08/07 02:51:00;;;;;;;8.25;5.85;;;;;;;18.22;98.37;98876.91;1574497;89;21053;-69
2021/08/07 02:53:27;;;;;;;8.10;6.03;;;;;;;18.19;97.63;98872.89;1606970;89;21965;-69
2021/08/07 02:55:54;;;;;;;7.55;6.62;;;;;;;18.18;97.29;98863.13;1606916;89;21116;-70
2021/08/07 02:58:24;;;;;;;6.10;5.08;;;;;;;18.12;97.22;98878.59;1606967;89;21049;-69
2021/08/07 03:00:52;;;;;;;11.35;5.53;;;;;;;18.17;96.95;98878.43;1560024;90;21117;-72
2021/08/07 03:03:19;;;;;;;4.97;4.58;;;;;;;18.24;96.11;98880.09;1561333;90;21576;-72
2021/08/07 03:05:46;;;;;;;6.10;5.50;;;;;;;18.27;95.78;98875.40;1557355;90;21073;-71
2021/08/07 03:08:13;;;;;;;7.70;5.72;;;;;;;18.30;95.65;98883.72;1565384;89;21559;-72
2021/08/07 03:10:41;;;;;;;6.75;5.72;;;;;;;18.24;95.47;98896.43;1654428;86;21503;-70
2021/08/07 03:13:09;;;;;;;6.87;5.75;;;;;;;18.21;95.42;98887.55;1651831;86;21121;-72
2021/08/07 03:15:37;;;;;;;6.45;5.00;;;;;;;18.27;94.79;98893.86;1629142;86;21051;-71
2021/08/07 03:18:04;;;;;;;5.90;5.40;;;;;;;18.30;94.11;98891.88;1642468;86;22087;-74
2021/08/07 03:20:32;;;;;;;6.80;5.25;;;;;;;18.34;93.64;98892.59;1654839;86;21042;-70
2021/08/07 03:23:06;;;;;;;4.50;4.15;;;;;;;18.36;92.96;98902.61;1647297;86;21043;-71
2021/08/07 03:25:36;;;;;;;5.55;4.67;;;;;;;18.38;92.55;98907.97;1608772;88;21570;-70
2021/08/07 03:28:05;;;;;;;5.83;4.45;;;;;;;18.42;91.81;98912.20;1639283;86;21098;-72
2021/08/07 03:30:33;;;;;;;11.75;4.75;;;;;;;18.47;91.32;98906.59;1632352;86;21070;-71
2021/08/07 03:33:00;;;;;;;5.55;5.05;;;;;;;18.52;90.17;98926.31;1654861;86;21021;-72
2021/08/07 03:35:27;;;;;;;5.50;5.00;;;;;;;18.56;89.41;98914.27;1634296;86;21073;-70
2021/08/07 03:37:53;;;;;;;6.28;5.15;;;;;;;18.59;88.65;98908.97;1657382;86;21147;-70
2021/08/07 03:40:21;;;;;;;5.05;4.33;;;;;;;18.63;88.32;98909.12;1657527;86;21088;-71
2021/08/07 03:42:48;;;;;;;5.15;4.70;;;;;;;18.67;87.94;98909.52;1634588;86;21166;-71
2021/08/07 03:45:16;;;;;;;5.85;5.22;;;;;;;18.68;86.91;98913.04;1657169;86;21018;-72
2021/08/07 03:47:50;;;;;;;7.20;5.30;;;;;;;18.65;87.09;98913.14;1613727;86;21037;-70
2021/08/07 03:50:20;;;;;;;5.20;4.50;;;;;;;18.69;87.02;98910.56;1657508;86;21069;-69
2021/08/07 03:52:47;;;;;;;8.35;5.03;;;;;;;18.58;87.10;98910.09;1657883;86;22302;-70
2021/08/07 03:55:15;;;;;;;5.85;5.28;;;;;;;18.32;88.32;98922.84;1614783;86;21201;-70
2021/08/07 03:57:54;;;;;;;9.95;6.08;;;;;;;18.15;89.76;98929.64;1648939;86;20943;-72
2021/08/07 04:00:24;;;;;;;5.45;4.95;;;;;;;18.07;90.44;98929.08;1633317;86;20979;-74
2021/08/07 04:02:52;;;;;;;5.30;4.90;;;;;;;18.07;90.77;98941.33;1657549;86;20974;-72
2021/08/07 04:05:19;;;;;;;4.30;3.92;;;;;;;18.17;90.01;98936.39;1636282;86;21538;-72
2021/08/07 04:07:46;;;;;;;5.22;4.62;;;;;;;18.23;89.74;98940.54;1653710;86;21091;-71
2021/08/07 04:10:16;;;;;;;4.85;4.37;;;;;;;18.27;88.68;98935.28;1619614;86;20940;-71
2021/08/07 04:12:42;;;;;;;4.70;4.22;;;;;;;18.30;87.97;98935.44;1657598;86;21090;-71
2021/08/07 04:15:11;;;;;;;4.78;4.30;;;;;;;18.35;87.42;98927.67;1657333;86;21113;-74
2021/08/07 04:17:40;;;;;;;4.90;4.50;;;;;;;18.43;86.56;98939.68;1627650;86;21052;-71
2021/08/07 04:20:09;;;;;;;5.25;4.80;;;;;;;18.50;85.82;98938.09;1634920;86;21020;-80
2021/08/07 04:22:38;;;;;;;5.22;4.83;;;;;;;18.59;85.53;98923.14;1603803;88;21055;-70
2021/08/07 04:25:06;;;;;;;9.18;4.55;;;;;;;18.67;84.84;98934.03;1603844;88;21072;-70
2021/08/07 04:27:33;;;;;;;5.03;4.40;;;;;;;18.74;84.13;98941.73;1622537;86;21571;-71
2021/08/07 04:30:00;;;;;;;7.92;4.65;;;;;;;18.77;83.46;98941.08;1657405;86;21602;-71
2021/08/07 04:32:27;;;;;;;5.55;4.58;;;;;;;18.80;82.98;98949.95;1657664;86;21113;-73
2021/08/07 04:34:56;;;;;;;5.65;4.97;;;;;;;18.61;81.84;98947.56;1658216;86;21089;-71
2021/08/07 04:37:22;;;;;;;7.00;4.95;;;;;;;18.43;83.81;98958.73;1656354;86;20989;-72
2021/08/07 04:39:50;;;;;;;6.60;5.12;;;;;;;18.29;83.79;98948.80;1657568;86;21819;-70
2021/08/07 04:42:18;;;;;;;4.97;3.98;;;;;;;18.23;83.99;98944.63;1657635;86;21045;-70
2021/08/07 04:44:44;;;;;;;3.90;3.55;;;;;;;18.28;83.37;98952.64;1657792;86;21617;-71
2021/08/07 04:47:13;;;;;;;6.72;3.65;;;;;;;18.35;82.48;98952.17;1649116;86;21028;-72
2021/08/07 04:49:39;;;;;;;5.62;3.27;;;;;;;18.40;82.27;98956.66;1617493;88;21079;-70
2021/08/07 04:52:06;;;;;;;3.70;3.40;;;;;;;18.44;81.52;98970.69;1644703;86;21441;-69
2021/08/07 04:54:35;;;;;;;4.25;3.80;;;;;;;18.49;80.96;98958.83;1615563;88;20993;-69
2021/08/07 04:57:02;;;;;;;4.45;4.05;;;;;;;18.52;80.33;98948.09;1616126;88;21775;-70
2021/08/07 04:59:29;;;;;;;4.33;3.90;;;;;;;18.59;79.94;98959.91;1606363;88;20934;-69
2021/08/07 05:01:57;;;;;;;3.42;3.17;;;;;;;18.64;79.08;98957.03;1615847;87;21115;-70
2021/08/07 05:04:24;;;;;;;4.20;3.67;;;;;;;18.71;78.36;98961.42;1592577;88;21079;-70
2021/08/07 05:06:51;;;;;;;3.62;3.15;;;;;;;18.80;77.78;98949.19;1592588;88;21556;-69
2021/08/07 05:09:18;;;;;;;4.85;3.37;;;;;;;18.89;77.21;98951.33;1616121;88;21100;-69
2021/08/07 05:11:52;;;;;;;3.83;3.52;;;;;;;18.97;76.99;98960.05;1614251;88;20992;-70
2021/08/07 05:14:18;;;;;;;5.58;3.65;;;;;;;18.97;76.28;98962.22;1612611;87;21032;-70
2021/08/07 05:16:45;;;;;;;7.12;4.22;;;;;;;18.81;76.09;98939.86;1594930;88;21080;-70
2021/08/07 05:19:12;;;;;;;4.62;3.67;;;;;;;18.63;76.99;98941.80;1611480;87;21106;-84
2021/08/07 05:21:40;;;;;;;3.50;3.15;;;;;;;18.53;76.63;98964.71;1642722;87;21547;-71
2021/08/07 05:24:08;;;;;;;4.00;3.70;;;;;;;18.51;77.10;98965.55;1589063;88;21052;-70
2021/08/07 05:26:36;;;;;;;3.15;2.87;;;;;;;18.60;76.77;98952.79;1590837;89;20979;-71
2021/08/07 05:29:02;;;;;;;4.42;2.85;;;;;;;18.63;76.48;98947.25;1615456;88;21024;-69
2021/08/07 05:31:30;;;;;;;8.70;2.67;;;;;;;18.65;76.14;98948.55;1616600;88;21060;-69
2021/08/07 05:33:57;;;;;;;6.42;3.85;;;;;;;18.67;76.22;98945.48;1574269;89;21103;-69
2021/08/07 05:36:24;;;;;;;4.35;3.05;;;;;;;18.71;76.23;98941.80;1584295;89;21100;-69
2021/08/07 05:38:51;;;;;;;3.22;2.98;;;;;;;18.80;75.99;98952.67;1581399;90;21080;-70
2021/08/07 05:41:17;;;;;;;3.02;2.83;;;;;;;18.88;75.50;98953.25;1581290;89;21076;-69
2021/08/07 05:43:46;;;;;;;6.50;3.50;;;;;;;19.02;75.35;98956.60;1586355;89;21045;-74
2021/08/07 05:46:12;;;;;;;3.20;2.70;;;;;;;19.15;74.94;98956.97;1615243;86;21090;-71
2021/08/07 05:48:40;;;;;;;3.83;3.17;;;;;;;19.31;74.21;98963.27;1643494;86;21034;-71
2021/08/07 05:51:07;;;;;;;2.95;2.67;;;;;;;19.41;73.45;98962.92;1654465;86;21034;-71
2021/08/07 05:53:34;;;;;;;3.02;2.75;;;;;;;19.47;72.30;98970.62;1623584;88;20983;-71
2021/08/07 05:56:00;;;;;;;3.40;3.00;;;;;;;19.53;71.79;98976.14;1583945;90;21056;-70
2021/08/07 05:58:31;;;;;;;3.58;3.27;;;;;;;19.58;71.65;98969.14;1563593;89;21297;-69
2021/08/07 06:00:57;;;;;;;3.62;3.20;;;;;;;19.64;71.66;98968.97;1602175;89;21136;-70
2021/08/07 06:03:24;;;;;;;3.72;3.42;;;;;;;19.68;71.59;98969.91;1606594;89;21042;-69
2021/08/07 06:05:53;;;;;;;3.33;3.02;;;;;;;19.72;71.71;98974.95;1601971;89;21001;-71
2021/08/07 06:08:19;;;;;;;4.12;3.20;;;;;;;19.75;71.69;98979.20;1599712;89;21083;-70
2021/08/07 06:10:46;;;;;;;4.15;3.35;;;;;;;19.77;71.38;98990.58;1604977;89;21976;-71
2021/08/07 06:13:15;;;;;;;3.50;3.20;;;;;;;19.80;71.46;98974.13;1624717;86;21095;-71
2021/08/07 06:15:41;;;;;;;3.00;2.77;;;;;;;19.89;69.97;98986.61;1618411;86;21119;-70
2021/08/07 06:18:08;;;;;;;4.28;3.77;;;;;;;19.85;69.87;98968.48;1638918;86;21578;-71
2021/08/07 06:20:36;;;;;;;3.62;3.33;;;;;;;19.85;69.87;98968.48;1645746;86;21045;-70
2021/08/07 06:23:04;;;;;;;3.00;2.72;;;;;;;19.71;69.92;98979.60;1654419;86;21983;-71
2021/08/07 06:25:30;;;;;;;3.50;3.20;;;;;;;19.70;69.87;98979.39;1642151;86;21534;-70
2021/08/07 06:27:59;;;;;;;4.60;3.08;;;;;;;19.77;70.15;98977.50;1641472;85;21033;-71
2021/08/07 06:30:28;;;;;;;2.72;2.52;;;;;;;19.78;70.71;98975.81;1631227;86;21097;-72
2021/08/07 06:32:57;;;;;;;3.17;2.77;;;;;;;19.80;69.87;98969.48;1651952;85;21109;-71
2021/08/07 06:35:24;;;;;;;2.65;2.45;;;;;;;19.80;69.87;98969.48;1631618;84;21260;-71
2021/08/07 06:37:53;;;;;;;3.10;2.77;;;;;;;19.89;69.42;98978.98;1665395;86;21086;-70
2021/08/07 06:40:20;;;;;;;3.37;2.92;;;;;;;20.00;68.79;98976.09;1665067;86;21060;-71
2021/08/07 06:42:47;;;;;;;3.40;3.10;;;;;;;20.11;68.59;98975.16;1629571;86;21213;-71
2021/08/07 06:45:33;;;;;;;3.42;3.12;;;;;;;20.20;67.06;98978.64;1642563;86;21141;-68
2021/08/07 06:48:02;;;;;;;2.98;2.77;;;;;;;20.28;67.38;98975.88;1664172;84;21332;-69
2021/08/07 06:50:29;;;;;;;2.40;2.20;;;;;;;20.34;67.18;98969.09;1664742;86;21594;-70
2021/08/07 06:52:56;;;;;;;4.20;2.92;;;;;;;20.37;66.84;98969.83;1662141;86;21037;-70
2021/08/07 06:55:23;;;;;;;4.30;2.85;;;;;;;20.43;66.84;98974.53;1658658;86;21510;-71
2021/08/07 06:57:49;;;;;;;3.08;2.80;;;;;;;20.48;66.94;98981.13;1665483;86;21104;-70
2021/08/07 07:00:16;;;;;;;4.25;2.80;;;;;;;20.53;66.97;98974.11;1653558;86;21515;-71
2021/08/07 07:02:43;;;;;;;5.45;2.85;;;;;;;20.57;65.18;98968.23;1658532;86;20991;-72
2021/08/07 07:05:11;;;;;;;7.97;3.05;;;;;;;20.49;65.08;98973.73;1650123;86;21500;-70
2021/08/07 07:07:39;;;;;;;3.10;2.80;;;;;;;20.44;65.03;98980.20;1626714;87;21011;-70
2021/08/07 07:10:11;;;;;;;3.00;2.80;;;;;;;20.47;64.52;98978.75;1634397;86;21653;-70
2021/08/07 07:12:40;;;;;;;4.67;3.35;;;;;;;20.42;64.74;98981.12;1627096;86;21122;-69
2021/08/07 07:15:08;;;;;;;2.58;2.35;;;;;;;20.40;65.43;98990.20;1629032;86;21661;-71
2021/08/07 07:17:36;;;;;;;6.72;3.08;;;;;;;20.41;65.38;98976.22;1618946;86;21210;-67
2021/08/07 07:20:04;;;;;;;2.87;2.67;;;;;;;20.49;64.61;98986.03;1629085;86;21027;-69
2021/08/07 07:22:33;;;;;;;2.80;2.60;;;;;;;20.62;64.29;98991.27;1647242;86;21050;-72
2021/08/07 07:25:02;;;;;;;4.30;2.75;;;;;;;20.74;64.25;98999.52;1636400;86;21085;-70
2021/08/07 07:27:29;;;;;;;7.60;2.85;;;;;;;20.84;63.66;99000.48;1640043;86;21622;-69
2021/08/07 07:29:55;;;;;;;2.70;2.50;;;;;;;20.92;63.18;99011.09;1656126;86;21053;-70
2021/08/07 07:32:22;;;;;;;6.05;2.62;;;;;;;20.98;62.68;99023.44;1658897;86;20993;-70
2021/08/07 07:34:49;;;;;;;2.87;2.30;;;;;;;21.02;61.53;99003.86;1631143;86;21092;-70
2021/08/07 07:37:16;;;;;;;3.17;2.80;;;;;;;21.10;61.01;99004.94;1638045;86;21058;-72
2021/08/07 07:39:42;;;;;;;4.05;2.12;;;;;;;21.13;60.41;99009.19;1628228;86;21560;-72
2021/08/07 07:42:09;;;;;;;3.98;2.90;;;;;;;21.09;60.94;99013.70;1648532;86;21332;-72
2021/08/07 07:44:37;;;;;;;12.30;2.47;;;;;;;20.86;62.03;99009.13;1630330;86;21034;-71
2021/08/07 07:47:04;;;;;;;6.50;3.02;;;;;;;20.80;62.51;99009.69;1619162;87;21528;-69
2021/08/07 07:49:31;;;;;;;4.95;3.58;;;;;;;20.85;62.37;99001.28;1650774;86;21782;-71
2021/08/07 07:51:58;;;;;;;3.22;2.92;;;;;;;20.82;62.58;99015.03;1664622;86;21072;-70
2021/08/07 07:54:25;;;;;;;3.12;2.83;;;;;;;20.78;63.05;99016.84;1638421;87;21050;-70
2021/08/07 07:56:52;;;;;;;2.95;2.75;;;;;;;20.79;63.19;99019.02;1638489;87;21531;-70
2021/08/07 07:59:18;;;;;;;2.95;2.75;;;;;;;20.82;63.53;99018.34;1638395;87;21037;-69
2021/08/07 08:01:46;;;;;;;3.15;2.85;;;;;;;20.93;62.59;99026.37;1622589;86;21225;-69
2021/08/07 08:04:13;;;;;;;4.60;2.60;;;;;;;21.05;61.44;99029.75;1665308;86;21062;-68
2021/08/07 08:06:41;;;;;;;3.08;2.83;;;;;;;21.17;61.30;99019.68;1664862;86;21068;-71
2021/08/07 08:09:07;;;;;;;3.20;2.77;;;;;;;21.33;61.44;99028.62;1623096;87;21034;-69
2021/08/07 08:11:34;;;;;;;3.80;3.35;;;;;;;21.46;61.08;99041.20;1655081;86;21546;-71
2021/08/07 08:14:00;;;;;;;4.25;2.42;;;;;;;21.53;60.47;99034.63;1645857;86;21188;-70
2021/08/07 08:16:28;;;;;;;6.25;3.55;;;;;;;21.62;60.20;99040.80;1646312;86;20978;-70
2021/08/07 08:18:55;;;;;;;3.67;3.10;;;;;;;21.63;58.78;99034.97;1645882;86;21095;-69
2021/08/07 08:21:22;;;;;;;2.55;2.35;;;;;;;21.53;58.49;99031.33;1665321;86;21537;-80
2021/08/07 08:23:50;;;;;;;2.50;2.20;;;;;;;21.57;55.83;99039.09;1644502;86;21045;-70
2021/08/07 08:26:17;;;;;;;3.72;2.70;;;;;;;21.61;53.73;99035.09;1662923;86;21098;-69
2021/08/07 08:28:43;;;;;;;3.65;2.90;;;;;;;21.61;54.87;99037.27;1619901;86;21535;-70
2021/08/07 08:31:10;;;;;;;2.87;2.67;;;;;;;21.60;54.63;99033.48;1619513;87;21074;-70
2021/08/07 08:33:37;;;;;;;5.33;3.08;;;;;;;21.64;55.12;99033.04;1638365;87;21088;-69
2021/08/07 08:36:05;;;;;;;3.35;2.92;;;;;;;21.67;55.25;99023.60;1574824;91;21699;-71
2021/08/07 08:38:32;;;;;;;3.45;2.80;;;;;;;21.77;54.50;99032.52;1578812;90;21651;-69
2021/08/07 08:40:59;;;;;;;8.33;2.40;;;;;;;21.87;52.38;99023.86;1578691;90;21058;-69
2021/08/07 08:43:27;;;;;;;5.17;3.80;;;;;;;21.96;52.55;99025.95;1608166;88;21061;-70
2021/08/07 08:45:54;;;;;;;3.22;2.83;;;;;;;22.02;53.10;99025.37;1593957;90;21043;-68
2021/08/07 08:48:21;;;;;;;4.12;3.05;;;;;;;22.11;53.04;99026.62;1592568;90;21104;-71
2021/08/07 08:50:50;;;;;;;3.15;2.87;;;;;;;22.21;53.29;99026.17;1610958;88;21134;-69
2021/08/07 08:53:17;;;;;;;3.05;2.65;;;;;;;22.25;53.42;99023.00;1595448;88;21085;-70
2021/08/07 08:55:44;;;;;;;3.02;2.72;;;;;;;22.22;51.45;99025.59;1618120;88;21026;-70
2021/08/07 08:58:11;;;;;;;5.65;3.08;;;;;;;22.22;51.73;99029.14;1595904;88;21028;-70
2021/08/07 09:00:38;;;;;;;3.80;2.67;;;;;;;22.25;52.35;99034.52;1618088;88;21033;-70
2021/08/07 09:03:05;;;;;;;4.17;2.02;;;;;;;22.25;50.66;99033.16;1617578;88;21184;-69
2021/08/07 09:05:31;;;;;;;2.20;2.08;;;;;;;22.24;50.15;99029.61;1618202;88;21101;-68
2021/08/07 09:07:58;;;;;;;1.95;1.80;;;;;;;22.28;49.63;99030.52;1617879;88;21020;-69
2021/08/07 09:10:26;;;;;;;2.83;1.95;;;;;;;22.35;49.43;99054.61;1616327;88;20992;-68
2021/08/07 09:12:58;;;;;;;1.62;1.52;;;;;;;22.46;48.57;99033.23;1617390;88;21057;-70
2021/08/07 09:15:39;;;;;;;2.45;2.10;;;;;;;22.56;46.88;99038.25;1618182;88;21159;-69
2021/08/07 09:18:25;;;;;;;5.47;3.33;;;;;;;22.64;46.75;99037.12;1598181;88;21174;-73
2021/08/07 09:20:56;;;;;;;3.40;2.20;;;;;;;22.65;47.55;99049.66;1574697;89;21066;-68
2021/08/07 09:23:34;;;;;;;3.02;2.25;;;;;;;22.62;47.69;99034.71;1534386;91;21575;-69
2021/08/07 09:26:20;;;;;;;4.05;2.77;;;;;;;22.63;48.39;99034.95;1630844;88;21212;-69
2021/08/07 09:28:56;;;;;;;3.08;2.55;;;;;;;22.67;48.35;99052.86;1649640;86;22172;-69
2021/08/07 09:31:25;;;;;;;2.42;1.98;;;;;;;22.65;47.34;99025.78;1636923;86;21649;-69
2021/08/07 09:34:16;;;;;;;2.98;1.98;;;;;;;22.66;48.29;99043.84;1647420;86;21538;-71
2021/08/07 09:36:53;;;;;;;3.35;1.90;;;;;;;22.69;47.52;99040.96;1641756;86;21046;-71
2021/08/07 09:39:39;;;;;;;2.52;1.67;;;;;;;22.73;46.97;99046.03;1610205;86;21621;-70
2021/08/07 09:42:07;;;;;;;1.77;1.67;;;;;;;22.75;47.69;99045.91;1646109;86;21156;-71
2021/08/07 09:44:35;;;;;;;2.37;2.10;;;;;;;22.80;47.98;99036.07;1629898;86;21032;-71
2021/08/07 09:47:05;;;;;;;2.08;1.87;;;;;;;22.84;47.90;99034.80;1610507;86;20950;-71
2021/08/07 09:49:39;;;;;;;1.95;1.82;;;;;;;22.87;48.05;99034.13;1654349;86;21155;-72
2021/08/07 09:52:06;;;;;;;4.35;2.20;;;;;;;22.91;48.02;99039.13;1630206;86;21218;-71
2021/08/07 09:54:41;;;;;;;2.10;1.90;;;;;;;22.93;48.32;99043.68;1627680;88;21102;-70
2021/08/07 09:57:10;;;;;;;1.95;1.77;;;;;;;22.98;48.71;99051.67;1627862;88;21563;-71
2021/08/07 09:59:47;;;;;;;2.10;1.90;;;;;;;23.06;48.52;99054.86;1627931;88;20983;-68
2021/08/07 10:02:32;;;;;;;2.20;2.00;;;;;;;23.11;48.69;99062.05;1627859;88;21119;-72
2021/08/07 10:05:00;;;;;;;3.42;2.27;;;;;;;23.13;48.86;99057.80;1632037;86;21017;-70
2021/08/07 10:07:27;;;;;;;2.65;1.70;;;;;;;23.18;47.67;99079.50;1610959;89;23401;-71
2021/08/07 10:09:59;;;;;;;7.37;2.00;;;;;;;23.14;47.79;99077.23;1606584;89;21037;-71
2021/08/07 10:12:25;;;;;;;2.10;2.00;;;;;;;23.19;48.26;99089.33;1604515;89;21780;-71
2021/08/07 10:14:59;;;;;;;3.00;2.70;;;;;;;23.26;48.53;99077.17;1605680;89;21057;-71
2021/08/07 10:17:26;;;;;;;2.58;2.37;;;;;;;23.35;48.76;99074.31;1605126;89;21078;-70
2021/08/07 10:19:54;;;;;;;2.40;2.20;;;;;;;23.45;47.78;99088.94;1573406;89;21388;-69
2021/08/07 10:22:21;;;;;;;2.98;1.98;;;;;;;23.52;47.58;99085.00;1606128;89;21015;-70
2021/08/07 10:24:51;;;;;;;5.50;2.17;;;;;;;23.59;47.49;99078.34;1606597;89;21576;-70
2021/08/07 10:27:20;;;;;;;2.65;2.45;;;;;;;23.60;47.14;99092.84;1581431;89;21506;-72
2021/08/07 10:29:51;;;;;;;5.22;2.45;;;;;;;23.61;47.28;99087.59;1599710;87;21254;-72
2021/08/07 10:32:19;;;;;;;4.72;2.90;;;;;;;23.61;47.54;99092.50;1580352;90;21203;-72
2021/08/07 10:34:51;;;;;;;5.58;2.83;;;;;;;23.69;47.93;99082.53;1580847;89;20994;-72
2021/08/07 10:37:19;;;;;;;2.87;2.67;;;;;;;23.83;47.99;99096.07;1600447;89;21086;-71
2021/08/07 10:39:47;;;;;;;2.42;2.22;;;;;;;23.97;48.02;99081.11;1566154;89;21085;-70
2021/08/07 10:42:15;;;;;;;3.77;2.12;;;;;;;24.03;47.76;99082.45;1595353;89;21101;-71
2021/08/07 10:44:44;;;;;;;5.42;2.50;;;;;;;24.13;47.51;99083.27;1591953;89;21633;-70
2021/08/07 10:47:12;;;;;;;2.45;2.22;;;;;;;24.22;47.72;99096.31;1579522;89;21543;-70
2021/08/07 10:49:45;;;;;;;1.80;1.70;;;;;;;24.35;46.96;99096.44;1606621;89;21036;-70
2021/08/07 10:52:35;;;;;;;1.50;1.40;;;;;;;24.46;46.37;99093.34;1604692;89;20981;-71
2021/08/07 10:55:02;;;;;;;2.02;1.40;;;;;;;24.57;45.90;99104.03;1604302;89;21093;-70
2021/08/07 10:57:38;;;;;;;2.05;1.62;;;;;;;24.62;45.15;99113.95;1602666;89;21234;-69
2021/08/07 11:00:20;;;;;;;3.02;1.62;;;;;;;24.55;45.14;99116.55;1605505;89;20942;-71
2021/08/07 11:02:46;;;;;;;1.92;1.22;;;;;;;24.47;45.78;99117.52;1606508;89;21042;-71
2021/08/07 11:05:13;;;;;;;2.12;1.98;;;;;;;24.39;46.11;99119.30;1581435;89;21129;-69
2021/08/07 11:07:40;;;;;;;9.80;1.30;;;;;;;24.31;46.59;99118.34;1606768;89;21128;-71
2021/08/07 11:10:16;;;;;;;8.50;2.62;;;;;;;24.27;45.76;99121.55;1607088;89;21764;-71
2021/08/07 11:12:45;;;;;;;1.55;1.30;;;;;;;24.20;45.46;99134.33;1606607;89;21531;-70
2021/08/07 11:15:30;;;;;;;3.00;1.40;;;;;;;24.08;46.15;99133.78;1604428;89;21022;-70
2021/08/07 11:18:20;;;;;;;2.80;1.10;;;;;;;24.04;46.33;99124.66;1581987;89;20997;-72
2021/08/07 11:20:48;;;;;;;1.50;1.40;;;;;;;24.05;46.55;99159.23;1555929;90;21168;-69
2021/08/07 11:23:15;;;;;;;1.50;1.30;;;;;;;24.02;46.76;99136.59;1595636;88;21187;-71
2021/08/07 11:25:55;;;;;;;1.30;1.20;;;;;;;24.07;46.64;99131.41;1605944;89;21595;-70
2021/08/07 11:28:22;;;;;;;2.87;1.45;;;;;;;24.21;45.54;99122.19;1580843;89;21024;-71
2021/08/07 11:31:12;;;;;;;2.22;1.70;;;;;;;24.36;45.59;99118.65;1606345;89;21392;-71
2021/08/07 11:33:38;;;;;;;1.95;1.32;;;;;;;24.49;45.52;99134.47;1606333;89;21022;-73
2021/08/07 11:36:05;;;;;;;0.82;0.82;;;;;;;24.55;44.08;99140.73;1606734;89;21163;-71
2021/08/07 11:38:32;;;;;;;1.25;1.10;;;;;;;24.53;43.51;99121.59;1613735;88;20972;-72
2021/08/07 11:41:08;;;;;;;2.83;1.22;;;;;;;24.49;43.80;99108.34;1592401;88;21041;-72
2021/08/07 11:43:41;;;;;;;2.17;1.15;;;;;;;24.52;44.16;99111.75;1638334;80;21538;-75